SBSM/RIA METAR and TAF weather

Enter ICAO airport designator
Station Type Date Time Source
SBSM METAR 2020/06/06 01:00 UTC NOAA

SBSM 060100Z 30012G22KT 7000 SCT008 BKN011 OVC015 16/13 Q1012


Station Type Date Time Source
SBSM Decoded METAR 2020/06/06 01:00 UTC NOAA

Santa Maria Aero-Porto , Brazil (SBSM) 29-43S 053-42W
Jun 05, 2020 - 09:00 PM EDT / 2020.06.06 0100 UTC
Wind: from the WNW (300 degrees) at 14 MPH (12 KT) gusting to 25 MPH (22 KT):0
Visibility: 4 mile(s):0
Sky conditions: overcast
Temperature: 60 F (16 C)
Dew Point: 55 F (13 C)
Relative Humidity: 82%
Pressure (altimeter): 29.88 in. Hg (1012 hPa)
ob: SBSM 060100Z 30012G22KT 7000 SCT008 BKN011 OVC015 16/13 Q1012
cycle: 1

Station Type Date Time Source
SBSM TAF 2020/06/05 18:48 UTC NOAA

TAF TAF SBSM 0518/0606 07005KT 4000 TSRA BKN008 FEW028CB TX19/0518Z TN10/0605Z
BECMG 0523/0601 34005KT 8000 RA BKN008
BECMG 0604/0606 06005KT 4000 BR BKN006
RMK PAZ

Example: see airport list